createdAt,value
2018-04-10T00:00:47.595Z,35.03
2018-04-10T00:03:15.207Z,33.00
2018-04-10T00:05:43.553Z,35.57
2018-04-10T00:08:11.143Z,44.13
2018-04-10T00:10:39.485Z,36.40
2018-04-10T00:13:07.051Z,38.43
2018-04-10T00:15:34.613Z,36.40
2018-04-10T00:18:02.207Z,34.10
2018-04-10T00:20:30.540Z,33.70
2018-04-10T00:22:58.395Z,38.67
2018-04-10T00:25:25.964Z,35.63
2018-04-10T00:27:53.554Z,36.90
2018-04-10T00:30:21.127Z,38.33
2018-04-10T00:32:49.465Z,36.40
2018-04-10T00:35:17.034Z,35.10
2018-04-10T00:37:44.596Z,39.23
2018-04-10T00:40:12.175Z,39.80
2018-04-10T00:42:39.825Z,35.30
2018-04-10T00:45:07.396Z,38.00
2018-04-10T00:47:34.971Z,35.00
2018-04-10T00:50:03.294Z,40.23
2018-04-10T00:52:30.928Z,37.43
2018-04-10T00:54:59.253Z,38.93
2018-04-10T00:57:26.839Z,39.87
2018-04-10T00:59:54.401Z,34.53
2018-04-10T01:02:22.769Z,34.73
2018-04-10T01:04:50.347Z,44.73
2018-04-10T01:07:17.924Z,46.53
2018-04-10T01:09:46.244Z,51.63
2018-04-10T01:12:13.871Z,41.70
2018-04-10T01:14:41.461Z,37.83
2018-04-10T01:17:09.389Z,38.30
2018-04-10T01:19:36.975Z,46.50
2018-04-10T01:22:04.645Z,51.30
2018-04-10T01:24:32.261Z,50.20
2018-04-10T01:26:59.832Z,45.27
2018-04-10T01:29:28.172Z,43.20
2018-04-10T01:31:55.722Z,44.30
2018-04-10T01:34:23.347Z,44.67
2018-04-10T01:36:51.689Z,43.00
2018-04-10T01:39:19.272Z,51.57
2018-04-10T01:41:47.699Z,43.03
2018-04-10T01:44:16.055Z,45.60
2018-04-10T01:46:43.655Z,48.27
2018-04-10T01:49:11.239Z,49.90
2018-04-10T01:51:38.808Z,56.70
2018-04-10T01:54:06.386Z,46.23
2018-04-10T01:56:34.727Z,48.50
2018-04-10T01:59:02.310Z,42.87
2018-04-10T02:01:29.933Z,43.30
2018-04-10T02:03:57.497Z,41.93
2018-04-10T02:06:25.086Z,47.23
2018-04-10T02:08:52.638Z,47.90
2018-04-10T02:11:20.239Z,47.00
2018-04-10T02:13:48.584Z,53.33
2018-04-10T02:16:16.207Z,46.17
2018-04-10T02:18:43.786Z,44.60
2018-04-10T02:21:11.397Z,50.53
2018-04-10T02:23:39.735Z,53.00
2018-04-10T02:26:07.342Z,52.47
2018-04-10T02:28:35.782Z,46.10
2018-04-10T02:31:03.374Z,57.20
2018-04-10T02:33:31.716Z,49.70
2018-04-10T02:35:59.308Z,53.63
2018-04-10T02:38:26.904Z,47.63
2018-04-10T02:40:54.513Z,46.87
2018-04-10T02:43:22.087Z,54.03
2018-04-10T02:45:49.781Z,44.60
2018-04-10T02:48:18.153Z,52.50
2018-04-10T02:50:45.781Z,51.73
2018-04-10T02:53:13.389Z,55.30
2018-04-10T02:55:41.001Z,47.80
2018-04-10T02:58:08.627Z,48.03
2018-04-10T03:00:36.185Z,61.33
2018-04-10T03:03:03.790Z,50.67
2018-04-10T03:05:31.351Z,65.43
2018-04-10T03:07:59.033Z,56.77
2018-04-10T03:10:26.605Z,61.43
2018-04-10T03:12:54.988Z,51.07
2018-04-10T03:15:23.348Z,56.77
2018-04-10T03:17:50.973Z,57.90
2018-04-10T03:20:18.576Z,54.80
2018-04-10T03:22:46.176Z,54.13
2018-04-10T03:25:13.753Z,52.07
2018-04-10T03:27:41.340Z,53.97
2018-04-10T03:30:08.935Z,55.10
2018-04-10T03:32:36.548Z,58.47
2018-04-10T03:35:04.185Z,60.97
2018-04-10T03:37:31.770Z,53.87
2018-04-10T03:39:59.362Z,53.87
2018-04-10T03:42:26.943Z,55.93
2018-04-10T03:44:55.300Z,58.40
2018-04-10T03:47:22.882Z,59.00
2018-04-10T03:49:51.268Z,63.87
2018-04-10T03:52:18.831Z,54.97
2018-04-10T03:54:46.440Z,56.10
2018-04-10T03:57:14.031Z,58.87
2018-04-10T03:59:41.637Z,68.03
2018-04-10T04:02:09.254Z,57.80
2018-04-10T04:04:36.839Z,55.37
2018-04-10T04:07:05.151Z,54.20
2018-04-10T04:09:32.763Z,63.10
2018-04-10T04:12:01.098Z,56.33
2018-04-10T04:14:28.680Z,60.10
2018-04-10T04:17:08.003Z,61.00
2018-04-10T04:19:47.491Z,56.47
2018-04-10T04:22:27.650Z,60.47
2018-04-10T04:24:55.243Z,56.80
2018-04-10T04:27:22.879Z,57.73
2018-04-10T04:29:50.443Z,61.40
2018-04-10T04:32:18.022Z,59.17
2018-04-10T04:34:45.598Z,64.60
2018-04-10T04:37:13.291Z,69.10
2018-04-10T04:39:40.878Z,63.07
2018-04-10T04:42:09.285Z,62.43
2018-04-10T04:44:36.875Z,58.60
2018-04-10T04:47:04.448Z,62.90
2018-04-10T04:49:32.032Z,56.07
2018-04-10T04:52:00.401Z,60.97
2018-04-10T04:54:28.012Z,62.33
2018-04-10T04:56:55.599Z,62.57
2018-04-10T04:59:23.175Z,59.77
2018-04-10T05:01:50.768Z,61.27
2018-04-10T05:04:19.109Z,56.37
2018-04-10T05:06:46.695Z,55.07
2018-04-10T05:09:15.088Z,64.20
2018-04-10T05:11:42.674Z,59.37
2018-04-10T05:14:10.269Z,58.97
2018-04-10T05:16:37.895Z,55.77
2018-04-10T05:19:06.244Z,59.87
2018-04-10T05:21:34.589Z,59.43
2018-04-10T05:24:02.180Z,55.27
2018-04-10T05:26:30.520Z,51.43
2018-04-10T05:28:58.100Z,62.80
2018-04-10T05:31:25.670Z,68.27
2018-04-10T05:33:53.291Z,65.03
2018-04-10T05:36:20.908Z,70.10
2018-04-10T05:38:49.319Z,66.10
2018-04-10T05:41:16.968Z,60.93
2018-04-10T05:43:45.280Z,62.57
2018-04-10T05:46:12.897Z,66.70
2018-04-10T05:48:41.307Z,60.97
2018-04-10T05:51:08.880Z,60.53
2018-04-10T05:53:36.468Z,55.00
2018-04-10T05:56:04.019Z,52.17
2018-04-10T05:58:31.739Z,53.07
2018-04-10T06:00:59.319Z,53.03
2018-04-10T06:03:26.912Z,52.63
2018-04-10T06:05:54.491Z,48.77
2018-04-10T06:08:22.830Z,54.27
2018-04-10T06:10:50.472Z,53.80
2018-04-10T06:13:18.059Z,52.40
2018-04-10T06:15:45.643Z,47.30
2018-04-10T06:18:13.232Z,56.53
2018-04-10T06:20:41.624Z,51.47
2018-04-10T06:23:09.174Z,51.13
2018-04-10T06:25:37.547Z,46.40
2018-04-10T06:28:05.884Z,48.50
2018-04-10T06:30:33.484Z,44.20
2018-04-10T06:33:01.820Z,42.00
2018-04-10T06:35:29.532Z,54.53
2018-04-10T06:37:58.039Z,43.93
2018-04-10T06:40:26.379Z,51.77
2018-04-10T06:42:53.949Z,41.27
2018-04-10T06:45:22.321Z,51.33
2018-04-10T06:47:49.923Z,44.77
2018-04-10T06:50:17.509Z,49.67
2018-04-10T06:52:45.098Z,43.70
2018-04-10T06:55:12.672Z,45.57
2018-04-10T06:57:41.025Z,44.17
2018-04-10T07:00:08.605Z,40.63
2018-04-10T07:02:36.208Z,41.50
2018-04-10T07:05:03.768Z,42.10
2018-04-10T07:07:31.448Z,41.23
2018-04-10T07:09:58.999Z,39.90
2018-04-10T07:12:26.668Z,35.43
2018-04-10T07:14:54.492Z,34.93
2018-04-10T07:17:22.832Z,41.03
2018-04-10T07:19:50.412Z,38.57
2018-04-10T07:22:17.982Z,38.73
2018-04-10T07:24:45.606Z,38.37
2018-04-10T07:27:13.183Z,33.57
2018-04-10T07:29:40.751Z,33.63
2018-04-10T07:32:08.310Z,37.60
2018-04-10T07:34:35.888Z,35.50
2018-04-10T07:37:03.440Z,33.67
2018-04-10T07:39:31.036Z,41.37
2018-04-10T07:41:58.614Z,37.70
2018-04-10T07:44:26.203Z,31.03
2018-04-10T07:46:53.770Z,35.93
2018-04-10T07:49:21.340Z,32.63
2018-04-10T07:51:48.898Z,33.20
2018-04-10T07:54:16.783Z,33.53
2018-04-10T07:56:44.343Z,28.60
2018-04-10T07:59:11.939Z,32.17
2018-04-10T08:01:40.266Z,31.83
2018-04-10T08:04:07.871Z,31.53
2018-04-10T08:06:35.441Z,25.57
2018-04-10T08:09:02.989Z,29.00
2018-04-10T08:11:30.574Z,28.00
2018-04-10T08:13:58.138Z,26.20
2018-04-10T08:16:25.716Z,20.57
2018-04-10T08:18:53.294Z,22.97
2018-04-10T08:21:20.900Z,21.07
2018-04-10T08:23:48.456Z,24.97
2018-04-10T08:26:16.822Z,20.73
2018-04-10T08:28:45.143Z,25.60
2018-04-10T08:31:12.753Z,22.50
2018-04-10T08:33:41.096Z,22.53
2018-04-10T08:36:08.667Z,21.70
2018-04-10T08:38:36.340Z,21.00
2018-04-10T08:41:03.947Z,24.77
2018-04-10T08:43:31.549Z,25.53
2018-04-10T08:45:59.127Z,19.40
2018-04-10T08:48:26.687Z,22.10
2018-04-10T08:50:54.335Z,19.77
2018-04-10T08:53:21.903Z,23.93
2018-04-10T08:55:49.473Z,23.63
2018-04-10T08:58:17.089Z,31.63
2018-04-10T09:00:44.683Z,27.83
2018-04-10T09:03:12.294Z,26.07
2018-04-10T09:05:39.859Z,23.73
2018-04-10T09:08:07.450Z,21.80
2018-04-10T09:10:34.995Z,19.50
2018-04-10T09:13:02.587Z,25.10
2018-04-10T09:15:30.231Z,21.73
2018-04-10T09:17:57.946Z,25.50
2018-04-10T09:20:26.255Z,22.30
2018-04-10T09:22:53.849Z,24.80
2018-04-10T09:25:21.412Z,21.80
2018-04-10T09:27:49.033Z,21.60
2018-04-10T09:30:16.612Z,23.50
2018-04-10T09:32:44.238Z,23.73
2018-04-10T09:35:12.559Z,21.57
2018-04-10T09:37:40.173Z,20.67
2018-04-10T09:40:08.516Z,24.20
2018-04-10T09:42:36.125Z,23.50
2018-04-10T09:45:04.483Z,21.13
2018-04-10T09:47:32.811Z,22.13
2018-04-10T09:50:00.387Z,21.40
2018-04-10T09:52:27.946Z,18.53
2018-04-10T09:54:55.525Z,19.83
2018-04-10T09:57:23.108Z,17.80
2018-04-10T09:59:50.707Z,19.13
2018-04-10T10:02:18.293Z,24.83
2018-04-10T10:04:45.875Z,20.20
2018-04-10T10:07:13.435Z,21.07
2018-04-10T10:09:41.024Z,23.43
2018-04-10T10:12:09.384Z,24.57
2018-04-10T10:14:36.973Z,21.13
2018-04-10T10:17:05.311Z,21.10
2018-04-10T10:19:32.887Z,24.50
2018-04-10T10:22:00.443Z,23.50
2018-04-10T10:24:28.052Z,24.93
2018-04-10T10:26:55.627Z,21.90
2018-04-10T10:29:23.214Z,20.37
2018-04-10T10:31:50.803Z,19.87
2018-04-10T10:34:19.233Z,20.27
2018-04-10T10:36:46.795Z,21.53
2018-04-10T10:39:14.340Z,20.27
2018-04-10T10:41:41.944Z,20.63
2018-04-10T10:44:09.518Z,23.10
2018-04-10T10:46:37.127Z,18.67
2018-04-10T10:49:04.685Z,23.63
2018-04-10T10:51:32.350Z,19.00
2018-04-10T10:53:59.916Z,15.10
2018-04-10T10:56:27.520Z,20.07
2018-04-10T10:58:55.098Z,14.20
2018-04-10T11:01:22.686Z,17.90
2018-04-10T11:03:50.253Z,16.47
2018-04-10T11:06:17.876Z,24.27
2018-04-10T11:08:45.456Z,15.60
2018-04-10T11:11:13.783Z,19.83
2018-04-10T11:13:41.382Z,19.07
2018-04-10T11:16:09.887Z,17.83
2018-04-10T11:18:37.460Z,16.83
2018-04-10T11:21:05.807Z,15.50
2018-04-10T11:23:34.167Z,17.00
2018-04-10T11:26:01.771Z,15.20
2018-04-10T11:28:29.350Z,17.07
2018-04-10T11:30:56.931Z,17.70
2018-04-10T11:33:24.531Z,16.83
2018-04-10T11:35:52.871Z,18.67
2018-04-10T11:38:20.454Z,18.50
2018-04-10T11:40:48.031Z,20.07
2018-04-10T11:43:15.596Z,16.57
2018-04-10T11:45:43.932Z,18.03
2018-04-10T11:48:11.519Z,22.80
2018-04-10T11:50:39.101Z,19.07
2018-04-10T11:53:07.433Z,16.40
2018-04-10T11:55:35.046Z,18.90
2018-04-10T11:58:03.403Z,18.70
2018-04-10T12:00:30.984Z,19.70
2018-04-10T12:02:59.353Z,22.80
2018-04-10T12:05:26.939Z,19.50
2018-04-10T12:07:54.517Z,19.63
2018-04-10T12:10:22.149Z,22.23
2018-04-10T12:12:50.463Z,22.87
2018-04-10T12:15:18.807Z,22.87
2018-04-10T12:17:47.158Z,24.50
2018-04-10T12:20:14.723Z,32.60
2018-04-10T12:22:43.106Z,24.93
2018-04-10T12:25:10.664Z,22.37
2018-04-10T12:27:38.259Z,20.10
2018-04-10T12:30:05.879Z,20.40
2018-04-10T12:32:33.456Z,22.33
2018-04-10T12:35:01.830Z,25.63
2018-04-10T12:37:29.396Z,24.60
2018-04-10T12:39:56.996Z,20.70
2018-04-10T12:42:24.641Z,26.33
2018-04-10T12:44:52.206Z,26.80
2018-04-10T12:47:19.815Z,25.23
2018-04-10T12:49:47.396Z,25.63
2018-04-10T12:52:14.985Z,29.80
2018-04-10T12:54:43.323Z,23.50
2018-04-10T12:57:10.937Z,24.27
2018-04-10T12:59:38.512Z,35.77
2018-04-10T13:02:06.210Z,30.30
2018-04-10T13:04:33.760Z,27.07
2018-04-10T13:07:01.360Z,30.23
2018-04-10T13:09:28.957Z,25.87
2018-04-10T13:11:56.519Z,33.00
2018-04-10T13:14:24.113Z,37.83
2018-04-10T13:16:51.720Z,35.30
2018-04-10T13:19:19.311Z,30.40
2018-04-10T13:21:47.667Z,33.90
2018-04-10T13:24:15.245Z,41.63
2018-04-10T13:26:42.924Z,38.27
2018-04-10T13:29:10.487Z,57.47
2018-04-10T13:31:38.032Z,35.43
2018-04-10T13:34:05.631Z,41.23
2018-04-10T13:36:33.206Z,41.00
2018-04-10T13:39:00.789Z,41.40
2018-04-10T13:41:28.343Z,37.77
2018-04-10T13:43:56.707Z,37.00
2018-04-10T13:46:24.284Z,38.33
2018-04-10T13:48:52.655Z,38.43
2018-04-10T13:51:21.031Z,39.30
2018-04-10T13:53:49.383Z,38.33
2018-04-10T13:56:16.964Z,43.60
2018-04-10T13:58:44.557Z,47.63
2018-04-10T14:01:12.909Z,54.40
2018-04-10T14:03:41.264Z,49.80
2018-04-10T14:06:08.965Z,54.27
2018-04-10T14:08:37.290Z,51.40
2018-04-10T14:11:05.655Z,53.87
2018-04-10T14:13:33.258Z,48.87
2018-04-10T14:16:00.843Z,46.23
2018-04-10T14:18:29.202Z,53.10
2018-04-10T14:20:56.820Z,53.13
2018-04-10T14:23:24.399Z,51.43
2018-04-10T14:25:52.384Z,59.43
2018-04-10T14:28:19.958Z,58.07
2018-04-10T14:30:47.567Z,49.70
2018-04-10T14:33:15.151Z,51.27
2018-04-10T14:35:42.732Z,48.47
2018-04-10T14:38:10.355Z,58.77
2018-04-10T14:40:37.993Z,51.07
2018-04-10T14:43:06.364Z,52.67
2018-04-10T14:45:34.732Z,58.37
2018-04-10T14:48:02.325Z,52.97
2018-04-10T14:50:29.993Z,62.67
2018-04-10T14:52:57.599Z,59.03
2018-04-10T14:55:25.153Z,52.07
2018-04-10T14:57:52.824Z,55.27
2018-04-10T15:00:20.395Z,59.90
2018-04-10T15:02:48.091Z,51.10
2018-04-10T15:05:15.656Z,49.00
2018-04-10T15:07:43.263Z,54.37
2018-04-10T15:10:10.824Z,54.67
2018-04-10T15:12:38.466Z,59.90
2018-04-10T15:15:06.032Z,53.13
2018-04-10T15:17:33.614Z,59.90
2018-04-10T15:20:01.197Z,51.63
2018-04-10T15:22:28.857Z,59.40
2018-04-10T15:24:56.403Z,56.00
2018-04-10T15:27:24.033Z,58.33
2018-04-10T15:29:51.617Z,56.43
2018-04-10T15:32:19.231Z,63.93
2018-04-10T15:34:46.832Z,57.40
2018-04-10T15:37:14.382Z,64.40
2018-04-10T15:39:42.745Z,67.23
2018-04-10T15:42:10.312Z,67.50
2018-04-10T15:44:37.908Z,72.73
2018-04-10T15:47:05.590Z,80.60
2018-04-10T15:49:33.134Z,75.80
2018-04-10T15:52:00.714Z,76.87
2018-04-10T15:54:29.064Z,74.73
2018-04-10T15:56:57.557Z,72.67
2018-04-10T15:59:25.152Z,77.80
2018-04-10T16:01:53.474Z,81.50
2018-04-10T16:04:21.089Z,84.10
2018-04-10T16:06:49.425Z,76.20
2018-04-10T16:09:17.011Z,83.03
2018-04-10T16:11:44.617Z,80.50
2018-04-10T16:14:12.208Z,70.77
2018-04-10T16:16:39.840Z,87.33
2018-04-10T16:19:07.449Z,79.70
2018-04-10T16:21:35.017Z,80.07
2018-04-10T16:24:02.600Z,77.60
2018-04-10T16:26:31.004Z,78.30
2018-04-10T16:28:58.625Z,73.60
2018-04-10T16:31:26.243Z,70.37
2018-04-10T16:33:53.804Z,79.00
2018-04-10T16:36:21.428Z,83.17
2018-04-10T16:38:49.763Z,72.77
2018-04-10T16:41:17.433Z,70.40
2018-04-10T16:43:45.023Z,75.30
2018-04-10T16:46:13.396Z,78.77
2018-04-10T16:48:40.968Z,72.47
2018-04-10T16:51:09.334Z,76.73
2018-04-10T16:53:37.683Z,85.93
2018-04-10T16:56:05.360Z,79.23
2018-04-10T16:58:32.963Z,81.53
2018-04-10T17:01:01.324Z,82.30
2018-04-10T17:03:29.686Z,79.63
2018-04-10T17:05:57.285Z,80.80
2018-04-10T17:08:24.923Z,90.30
2018-04-10T17:10:52.488Z,86.93
2018-04-10T17:13:20.076Z,81.70
2018-04-10T17:15:47.655Z,84.97
2018-04-10T17:18:15.259Z,85.73
2018-04-10T17:20:42.824Z,75.40
2018-04-10T17:23:10.424Z,82.80
2018-04-10T17:25:37.983Z,75.03
2018-04-10T17:28:05.577Z,87.70
2018-04-10T17:30:33.152Z,85.90
2018-04-10T17:33:01.951Z,83.47
2018-04-10T17:35:29.595Z,76.13
2018-04-10T17:37:57.206Z,86.33
2018-04-10T17:40:24.880Z,83.63
2018-04-10T17:42:52.472Z,87.53
2018-04-10T17:45:20.068Z,84.47
2018-04-10T17:47:47.666Z,84.20
2018-04-10T17:50:15.256Z,84.13
2018-04-10T17:52:42.835Z,88.90
2018-04-10T17:55:10.456Z,97.27
2018-04-10T17:57:38.055Z,91.37
2018-04-10T18:00:05.656Z,93.97
2018-04-10T18:02:34.040Z,86.23
2018-04-10T18:05:02.466Z,91.33
2018-04-10T18:07:30.054Z,96.77
2018-04-10T18:09:57.628Z,95.13
2018-04-10T18:12:25.972Z,97.83
2018-04-10T18:14:53.605Z,91.27
2018-04-10T18:17:21.220Z,93.70
2018-04-10T18:19:48.865Z,86.60
2018-04-10T18:22:16.477Z,91.93
2018-04-10T18:24:44.099Z,90.43
2018-04-10T18:27:11.701Z,90.17
2018-04-10T18:29:39.288Z,101.33
2018-04-10T18:32:06.905Z,92.83
2018-04-10T18:34:35.265Z,90.07
2018-04-10T18:37:02.892Z,90.83
2018-04-10T18:39:30.513Z,91.30
2018-04-10T18:41:58.869Z,86.87
2018-04-10T18:44:26.480Z,87.23
2018-04-10T18:46:54.117Z,86.33
2018-04-10T18:49:21.676Z,90.17
2018-04-10T18:51:50.076Z,90.60
2018-04-10T18:54:18.034Z,101.30
2018-04-10T18:56:46.421Z,93.23
2018-04-10T18:59:14.096Z,88.40
2018-04-10T19:01:41.668Z,97.97
2018-04-10T19:04:09.364Z,89.77
2018-04-10T19:06:36.960Z,91.10
2018-04-10T19:09:06.149Z,102.20
2018-04-10T19:11:33.735Z,88.53
2018-04-10T19:14:01.327Z,95.40
2018-04-10T19:16:28.908Z,95.80
2018-04-10T19:18:56.505Z,91.90
2018-04-10T19:21:25.104Z,94.67
2018-04-10T19:23:52.710Z,93.80
2018-04-10T19:26:20.338Z,94.43
2018-04-10T19:28:47.983Z,81.43
2018-04-10T19:31:16.364Z,63.93
2018-04-10T19:33:54.015Z,61.47
2018-04-10T19:36:22.394Z,60.40
2018-04-10T19:38:50.002Z,49.57
2018-04-10T19:41:17.617Z,44.50
2018-04-10T19:43:45.200Z,34.73
2018-04-10T19:46:12.847Z,36.63
2018-04-10T19:48:40.417Z,29.07
2018-04-10T19:51:08.014Z,34.83
2018-04-10T19:53:36.440Z,32.80
2018-04-10T19:56:04.072Z,34.90
2018-04-10T19:58:31.681Z,30.33
2018-04-10T20:00:59.278Z,33.33
2018-04-10T20:03:26.932Z,35.00
2018-04-10T20:05:55.428Z,32.07
2018-04-10T20:08:23.141Z,39.17
2018-04-10T20:10:50.840Z,32.23
2018-04-10T20:13:19.323Z,38.77
2018-04-10T20:15:47.797Z,37.93
2018-04-10T20:18:16.211Z,50.67
2018-04-10T20:20:43.857Z,39.40
2018-04-10T20:23:12.244Z,37.97
2018-04-10T20:25:39.829Z,40.67
2018-04-10T20:28:07.488Z,50.53
2018-04-10T20:30:35.157Z,41.53
2018-04-10T20:33:03.512Z,41.53
2018-04-10T20:35:31.095Z,48.97
2018-04-10T20:37:58.778Z,49.40
2018-04-10T20:40:26.349Z,45.43
2018-04-10T20:42:53.991Z,52.67
2018-04-10T20:45:21.588Z,49.70
2018-04-10T20:47:49.184Z,44.77
2018-04-10T20:50:16.785Z,48.17
2018-04-10T20:52:44.461Z,46.67
2018-04-10T20:55:12.048Z,46.63
2018-04-10T20:57:40.462Z,43.87
2018-04-10T21:00:08.031Z,43.93
2018-04-10T21:02:35.608Z,46.20
2018-04-10T21:05:03.202Z,50.90
2018-04-10T21:07:30.753Z,48.00
2018-04-10T21:09:58.403Z,43.73
2018-04-10T21:12:25.995Z,41.00
2018-04-10T21:14:53.576Z,49.33
2018-04-10T21:17:21.147Z,51.00
2018-04-10T21:19:48.764Z,44.90
2018-04-10T21:22:16.335Z,50.93
2018-04-10T21:24:43.921Z,45.20
2018-04-10T21:27:11.488Z,48.40
2018-04-10T21:29:39.085Z,59.63
2018-04-10T21:32:06.645Z,52.40
2018-04-10T21:34:34.224Z,49.73
2018-04-10T21:37:01.807Z,51.87
2018-04-10T21:39:30.159Z,48.77
2018-04-10T21:41:57.756Z,50.90
2018-04-10T21:44:26.174Z,55.00
2018-04-10T21:46:53.775Z,47.63
2018-04-10T21:49:21.376Z,52.83
2018-04-10T21:51:48.967Z,50.37
2018-04-10T21:54:16.526Z,51.63
2018-04-10T21:56:44.103Z,47.30
2018-04-10T21:59:11.765Z,56.00
2018-04-10T22:01:39.363Z,52.43
2018-04-10T22:04:07.005Z,49.57
2018-04-10T22:06:34.593Z,52.03
2018-04-10T22:09:02.165Z,49.17
2018-04-10T22:11:29.753Z,53.50
2018-04-10T22:13:57.367Z,52.90
2018-04-10T22:16:25.702Z,45.57
2018-04-10T22:18:53.267Z,49.70
2018-04-10T22:21:20.848Z,45.50
2018-04-10T22:23:48.435Z,48.37
2018-04-10T22:26:16.786Z,51.83
2018-04-10T22:28:44.373Z,54.97
2018-04-10T22:31:12.727Z,59.97
2018-04-10T22:33:40.368Z,55.83
2018-04-10T22:36:08.728Z,63.73
2018-04-10T22:38:36.314Z,57.33
2018-04-10T22:41:04.797Z,57.10
2018-04-10T22:43:32.364Z,54.20
2018-04-10T22:46:00.720Z,60.63
2018-04-10T22:48:28.312Z,55.77
2018-04-10T22:50:55.905Z,55.70
2018-04-10T22:53:23.512Z,61.77
2018-04-10T22:55:51.090Z,57.93
2018-04-10T22:58:19.433Z,66.97
2018-04-10T23:00:49.723Z,58.27
2018-04-10T23:03:17.299Z,56.90
2018-04-10T23:05:44.918Z,59.50
2018-04-10T23:08:12.510Z,70.63
2018-04-10T23:10:40.111Z,63.17
2018-04-10T23:13:07.689Z,63.50
2018-04-10T23:15:35.270Z,63.30
2018-04-10T23:18:02.855Z,70.00
2018-04-10T23:20:31.202Z,69.87
2018-04-10T23:22:58.786Z,69.67
2018-04-10T23:25:27.126Z,72.40
2018-04-10T23:27:54.732Z,69.93
2018-04-10T23:30:23.091Z,78.37
2018-04-10T23:32:50.712Z,75.80
2018-04-10T23:35:18.277Z,74.43
2018-04-10T23:37:45.868Z,84.90
2018-04-10T23:40:13.432Z,87.80
2018-04-10T23:42:41.037Z,93.33
2018-04-10T23:45:08.587Z,107.50
2018-04-10T23:47:36.925Z,100.90
2018-04-10T23:50:04.508Z,100.57
2018-04-10T23:52:32.104Z,94.63
2018-04-10T23:54:59.707Z,99.60
2018-04-10T23:57:28.092Z,96.27
2018-04-10T23:59:55.669Z,105.03
